Aviation Digital Data Service (ADDS)

Output produced by METARs form (1345 UTC 10 July 2020)
found at http://www.aviationweather.gov/metar/data/
 
KCBM 101256Z AUTO 00000KT 10SM CLR 26/22 A2997 RMK AO2 SLP149 T02570222 $
KCBM 101156Z AUTO 00000KT 10SM CLR 23/22 A2997 RMK AO2 SLP150 T02300221 10230 20215 52009 $
KCBM 101056Z AUTO 00000KT 10SM CLR 22/21 A2996 RMK AO2 SLP146 T02170210 $
KCBM 100956Z AUTO 00000KT 10SM CLR 22/21 A2994 RMK AO2 SLP139 T02210212 $
KCBM 100856Z AUTO 00000KT 10SM CLR 22/22 A2994 RMK AO2 SLP139 T02240215 55002 $
KCBM 100756Z AUTO 00000KT 10SM CLR 22/22 A2994 RMK AO2 SLP139 T02240215 $
KCBM 100656Z AUTO 00000KT 10SM CLR 23/22 A2994 RMK AO2 SLP139 T02250216 $
KCBM 100556Z 00000KT 10SM CLR 23/22 A2995 RMK AO2A SLP143 T02250215 10296 20225 403240225 52008 $
KCBM 100456Z COR AUTO 00000KT 9SM CLR 23/22 A2994 RMK AO2 SLP139 T02340218 $ COR 0500
KCBM 100356Z COR AUTO 00000KT 10SM CLR 24/22 A2993 RMK AO2 SLP136 T02400219 $ COR 0359
KCBM 100256Z AUTO 27005KT 10SM CLR 25/23 A2992 RMK AO2 SLP133 T02500225 53007 $
KCBM 100156Z AUTO 15006KT 10SM CLR 26/24 A2986 RMK AO2 SLP112 T02610243 $
KCBM 100056Z AUTO 24008KT 10SM FEW035 28/25 A2989 RMK AO2 SLP122 T02780248 $
KCBM 092356Z AUTO 23005KT 10SM CLR 30/25 A2990 RMK AO2 SLP126 T02970247 10324 20294 58002 $
KCBM 092256Z AUTO 18004KT 10SM CLR 31/25 A2989 RMK AO2 SLP122 T03090250 $
KCBM 092156Z AUTO 24004KT 10SM CLR 29/25 A2991 RMK AO2 LTG DSNT SE-S SLP129 T02940253 $
KCBM 092056Z AUTO 22008KT 10SM FEW065 31/25 A2991 RMK AO2 LTG DSNT S-SW AND NW SLP129 T03120248 55013 $
KCBM 091956Z AUTO 20004KT 10SM CLR 32/24 A2991 RMK AO2 SLP129 T03240244 $
KCBM 091856Z AUTO 20005KT 10SM FEW029 FEW150 32/25 A2992 RMK AO2 SLP132 T03170245 $
KCBM 091756Z AUTO 00000KT 10SM FEW026 30/24 A2994 RMK AO2 DZB15E17 SLP139 P0000 60000 T03030237 10305 20241 50000 $
KCBM 091717Z AUTO 22004KT 10SM FEW036 FEW047 SCT170 SCT200 30/24 A2995 RMK AO2 DZB15E17 SLP143 $
KCBM 091715Z AUTO 23006KT 10SM -DZ FEW036 FEW047 SCT170 SCT200 30/24 A2995 RMK AO2 DZB15 SLP143 $
KCBM 091656Z AUTO 24006KT 10SM FEW019 SCT048 30/24 A2995 RMK AO2 SLP143 T02970236 $
KCBM 091646Z AUTO 22003KT 10SM SCT020 29/23 A2995 RMK AO2 SLP143 $
KCBM 091641Z AUTO 23008KT 10SM BKN020 29/24 A2995 RMK AO2 SLP143 $
KCBM 091626Z AUTO 20006KT 10SM SCT019 SCT036 29/24 A2995 RMK AO2 SLP143 $
KCBM 091621Z AUTO 18005KT 10SM SCT019 BKN035 29/24 A2995 RMK AO2 SLP143 $
KCBM 091611Z AUTO 00000KT 10SM BKN019 29/24 A2995 RMK AO2 SLP143 $
KCBM 091556Z AUTO 00000KT 10SM SCT018 SCT029 29/24 A2996 RMK AO2 SLP146 T02900239 $
KCBM 091549Z AUTO 00000KT 10SM FEW016 SCT021 SCT029 29/24 A2996 RMK AO2 SLP146 $
KCBM 091539Z AUTO 17004KT 10SM SCT016 BKN029 29/24 A2996 RMK AO2 SLP146 $
KCBM 091509Z AUTO 00000KT 10SM SCT010 OVC026 27/24 A2995 RMK AO2 CIG 011V026 SLP143 $
KCBM 091501Z AUTO 00000KT 10SM BKN011 OVC026 27/24 A2994 RMK AO2 BKN V OVC SLP140 $
KCBM 091456Z AUTO 00000KT 10SM OVC010 26/24 A2994 RMK AO2 RAE04 SLP140 P0000 60000 T02640236 50002 $
KCBM 091452Z AUTO 00000KT 10SM OVC010 26/24 A2994 RMK AO2 RAE04 SLP140 $
KCBM 091444Z AUTO 00000KT 10SM OVC011 26/23 A2994 RMK AO2 RAE04 SLP140 $
KCBM 091414Z AUTO 00000KT 10SM BKN008 OVC018 26/23 A2994 RMK AO2 RAE04 BKN V OVC SLP140 $
KCBM 091404Z AUTO 00000KT 10SM OVC007 26/23 A2995 RMK AO2 RAE04 SLP143 $
KCBM 091356Z AUTO 00000KT 10SM -RA OVC007 25/23 A2995 RMK AO2 DZB42E52RAB52 SLP143 P0000 T02540234 $
KCBM 091342Z AUTO 00000KT 10SM -DZ OVC007 25/23 A2995 RMK AO2 DZB42 SLP143 $
KCBM 091326Z AUTO 00000KT 10SM OVC007 25/23 A2995 RMK AO2 SLP143 $
KCBM 091256Z AUTO 00000KT 10SM OVC006 25/23 A2995 RMK AO2 OVC V BKN SLP143 T02470233 $
KCBM 091231Z 00000KT 10SM SCT008 BKN020 25/24 A2995 RMK AO2A BKN V SCT SLP143 $
KCBM 091211Z 22003KT 10SM SCT007 BKN022 24/24 A2994 RMK AO2A BKN V OVC SLP140 $
KCBM 091207Z 20003KT 10SM BKN007 OVC022 24/24 A2994 RMK CIG 007V022 SLP140 $
KCBM 091201Z AUTO 20003KT 10SM SCT007 OVC022 24/24 A2994 RMK AO2 CIG 007V022 SLP140 $
KCBM 091156Z AUTO 20003KT 10SM BKN007 OVC022 24/24 A2994 RMK AO2 CIG 007V022 BKN V SCT SLP140 T02420235 10242 20232 52012 $
KCBM 091152Z 20004KT 10SM BKN007 OVC022 24/24 A2994 RMK CIG 007V022 SLP140 $
KCBM 091151Z AUTO 20004KT 10SM SCT007 OVC022 24/24 A2994 RMK AO2 CIG 007V022 SLP140 $
KCBM 091126Z AUTO 20003KT 10SM BKN007 OVC070 24/23 A2994 RMK AO2 CIG 007V070 BKN V SCT SLP140 $
KCBM 091116Z AUTO 00000KT 10SM BKN008 BKN070 24/23 A2994 RMK AO2 CIG 008V070 BKN008 V FEW SLP139 $
KCBM 091056Z AUTO 00000KT 10SM FEW006 SCT070 24/23 A2993 RMK AO2 SLP136 T02370230 $
KCBM 091032Z AUTO 00000KT 10SM FEW006 FEW017 SCT065 24/23 A2992 RMK AO2 SLP133 $
KCBM 090956Z AUTO 00000KT 10SM BKN065 24/23 A2992 RMK AO2 SLP133 T02370232 $
KCBM 090926Z AUTO 00000KT 10SM FEW003 SCT023 SCT070 24/23 A2991 RMK AO2 SLP129 $
KCBM 090921Z AUTO 00000KT 10SM FEW003 SCT021 BKN028 24/23 A2991 RMK AO2 CIG 021V028 SLP129 $
KCBM 090906Z AUTO 00000KT 10SM FEW001 BKN021 BKN060 23/23 A2990 RMK AO2 CIG 021V060 SLP126 $
KCBM 090856Z AUTO 00000KT 10SM FEW001 SCT020 SCT030 BKN060 23/23 A2990 RMK AO2 SLP126 T02330228 55003 $
KCBM 090756Z AUTO 17003KT 10SM FEW005 SCT019 SCT026 23/23 A2990 RMK AO2 SLP126 T02330228 $
KCBM 090751Z AUTO 18003KT 10SM FEW005 SCT019 SCT026 23/23 A2990 RMK AO2 SLP126 $
KCBM 090736Z AUTO 15003KT 10SM SCT005 BKN019 23/23 A2990 RMK AO2 CIG 005V019 SLP126 $
KCBM 090726Z AUTO 12003KT 10SM BKN005 BKN022 23/23 A2990 RMK AO2 CIG 005V022 BKN005 V SCT SLP126 $
KCBM 090656Z AUTO 00000KT 10SM SCT006 SCT015 OVC022 23/23 A2990 RMK AO2 SLP126 T02330226 $
KCBM 090641Z AUTO 00000KT 10SM SCT006 SCT015 BKN021 23/23 A2991 RMK AO2 CIG 015V021 SLP129 $
KCBM 090636Z AUTO 00000KT 10SM SCT006 BKN015 BKN021 23/23 A2991 RMK AO2 CIG 015V021 BKN015 V SCT SLP129 $
KCBM 090631Z AUTO 00000KT 10SM FEW007 SCT015 BKN021 23/23 A2991 RMK AO2 BKN V SCT SLP129 $
KCBM 090611Z AUTO 00000KT 10SM FEW007 FEW026 23/23 A2991 RMK AO2 SLP129 $
KCBM 090556Z AUTO 00000KT 10SM CLR 23/23 A2991 RMK AO2 SLP129 T02340227 10269 20232 402870229 58004 $
KCBM 090456Z AUTO 00000KT 10SM CLR 23/23 A2992 RMK AO2 SLP133 T02320225 $
KCBM 090356Z AUTO 18003KT 10SM CLR 24/23 A2993 RMK AO2 SLP136 T02350226 $
KCBM 090256Z AUTO 16005KT 10SM CLR 23/22 A2993 RMK AO2 SLP136 T02340222 52007 $
KCBM 090156Z AUTO 00000KT 10SM CLR 24/22 A2992 RMK AO2 SLP133 T02420224 $
KCBM 090056Z AUTO 00000KT 10SM CLR 26/22 A2991 RMK AO2 SLP129 T02590224 $
KCBM 082356Z AUTO 20003KT 10SM CLR 27/22 A2990 RMK AO2 SLP126 T02660224 10287 20259 58006 $
KCBM 082256Z AUTO 19004KT 10SM CLR 26/23 A2992 RMK AO2 SLP133 T02640232 $
KCBM 082156Z AUTO 20005KT 10SM FEW110 26/22 A2993 RMK AO2 SLP136 T02590224 $
KCBM 082056Z AUTO 22006KT 10SM FEW200 26/23 A2992 RMK AO2 SLP133 T02630227 55019 $
KCBM 081956Z AUTO 22006KT 10SM CLR 27/23 A2992 RMK AO2 SLP133 T02740232 $
KCBM 081856Z AUTO 22004KT 10SM CLR 27/23 A2994 RMK AO2 SLP140 T02740234 $
KCBM 081756Z AUTO 00000KT 10SM FEW075 29/23 A2998 RMK AO2 SLP153 T02850227 10287 20238 58008 $
KCBM 081656Z 11003KT 10SM FEW210 28/23 A2999 RMK AO2A SLP156 T02790226 $
KCBM 081556Z 24005KT 10SM FEW018 SCT200 27/23 A3001 RMK AO2A SLP163 T02740228 $
KCBM 081456Z 31003KT 10SM FEW015 BKN100 26/23 A3000 RMK AO2A SLP160 T02630227 53006 $
KCBM 081356Z 22005KT 10SM BKN100 25/23 A3000 RMK AO2A SLP160 T02520230 $
KCBM 081332Z 24004KT 10SM BKN100 25/23 A2999 RMK SLP157 $
KCBM 081256Z AUTO 24003KT 10SM CLR 24/23 A2999 RMK AO2 SLP156 T02430231 $
KCBM 081156Z AUTO 00000KT 10SM CLR 24/23 A2998 RMK AO2 SLP153 70001 T02380229 10238 20229 $
KCBM 081056Z AUTO 00000KT 10SM SCT100 23/23 A2998 RMK AO2 SLP153 T02340225 $
KCBM 080956Z AUTO 00000KT 10SM SCT050 SCT140 23/22 A2997 RMK AO2 SLP149 T02330224 $
KCBM 080928Z AUTO 00000KT 10SM SCT048 23/22 A2997 RMK AO2 SLP149 $
KCBM 080856Z AUTO 00000KT 10SM BKN043 23/22 A2997 RMK AO2 SLP149 T02310222 55000 $
KCBM 080756Z AUTO 00000KT 10SM FEW049 23/22 A2996 RMK AO2 SLP146 T02330223 $
KCBM 080741Z AUTO 13004KT 10SM SCT049 23/22 A2996 RMK AO2 SLP146 $
KCBM 080736Z AUTO 00000KT 10SM BKN049 23/22 A2996 RMK AO2 SLP146 $
KCBM 080656Z AUTO 00000KT 10SM CLR 23/22 A2997 RMK AO2 SLP149 T02320220 $
KCBM 080556Z AUTO 21003KT 10SM CLR 23/22 A2997 RMK AO2 SLP149 60001 T02290219 10273 20229 403130217 50002 RVRNO $
KCBM 080456Z AUTO 00000KT 10SM CLR 23/22 A2997 RMK AO2 SLP149 T02330219 $
KCBM 080356Z AUTO 00000KT 10SM CLR 23/22 A2997 RMK AO2 SLP150 T02330217 $
KCBM 080256Z AUTO 00000KT 10SM FEW034 23/22 A2997 RMK AO2 SLP150 60001 T02310215 50010 $
KCBM 080156Z 25003KT 10SM CLR 23/22 A2997 RMK AO2A RAE22DZB22E28RAB28E44 SLP150 P0001 T02330221 $
KCBM 080056Z COR AUTO 30008KT 10SM -RA OVC085 26/23 A2996 RMK AO2 RAB46 SLP146 P0000 T02580229 $ COR 0145
KCBM 080050Z AUTO 30007KT 10SM -RA M 26/23 A2996 RMK AO2 LTG DSNT SE RAB46 SLP146 $
KCBM 072356Z AUTO 01007KT 10SM CLR 27/22 A2994 RMK AO2 LTG DSNT SW-NW SLP140 60000 T02730220 10313 20273 53001 $
KCBM 072256Z AUTO 36003KT 10SM CLR 31/22 A2992 RMK AO2 SLP133 T03050224 $
KCBM 072156Z AUTO 01006KT 10SM CLR 31/22 A2993 RMK AO2 SLP136 T03120219 $
KCBM 072056Z AUTO 01004KT 10SM CLR 30/22 A2994 RMK AO2 RAB02E13 SLP139 P0000 60000 T03030224 57017 $
KCBM 072013Z AUTO 07006KT 10SM FEW130 29/24 A2995 RMK AO2 RAB02E13 SLP143 $
KCBM 072002Z AUTO 06010KT 10SM -RA FEW033 29/23 A2995 RMK AO2 RAB02 SLP143 $
KCBM 071956Z AUTO 04009KT 10SM FEW033 28/23 A2995 RMK AO2 SLP143 T02830227 $
KCBM 071856Z 00000KT 10SM FEW031 FEW190 31/24 A2997 RMK AO2A SLP149 T03120238 $
KCBM 071756Z 36003KT 10SM FEW180 SCT200 31/23 A2999 RMK AO2A SLP156 T03060232 10306 20226 58008 $
KCBM 071656Z 01006KT 10SM FEW200 30/24 A3001 RMK AO2A SLP168 T03020236 $
KCBM 071556Z 04005KT 10SM CLR 29/23 A3001 RMK AO2A SLP171 T02920231 $
KCBM 071456Z 02003KT 10SM CLR 28/23 A3001 RMK AO2A SLP171 T02760229 51014 $
KCBM 071356Z 02003KT 10SM CLR 26/23 A3001 RMK AO2A SLP164 T02630225 $
TAF KCBM 100900Z 1009/1115 VRB06KT 9999 SCT050 QNH2991INS 
     BECMG 1012/1013 VRB06KT 9999 FEW030 QNH2993INS 
     BECMG 1019/1020 32010G15KT 9999 SKC QNH2986INS 
     BECMG 1101/1102 VRB06KT 9999 SKC QNH2987INS TX35/1019Z TN23/1109Z